sensor_id;sensor_type;location;lat;lon;timestamp;P1;durP1;ratioP1;P2;durP2;ratioP2
12921;SDS011;6528;48.086;16.282;2023-08-17T00:00:32;5.87;;;5.47;;
12921;SDS011;6528;48.086;16.282;2023-08-17T00:03:00;6.87;;;6.37;;
12921;SDS011;6528;48.086;16.282;2023-08-17T00:05:27;7.27;;;6.67;;
12921;SDS011;6528;48.086;16.282;2023-08-17T00:07:54;6.53;;;6.13;;
12921;SDS011;6528;48.086;16.282;2023-08-17T00:10:23;6.40;;;5.90;;
12921;SDS011;6528;48.086;16.282;2023-08-17T00:12:51;7.07;;;6.37;;
12921;SDS011;6528;48.086;16.282;2023-08-17T00:15:19;6.40;;;6.00;;
12921;SDS011;6528;48.086;16.282;2023-08-17T00:17:46;5.67;;;5.17;;
12921;SDS011;6528;48.086;16.282;2023-08-17T00:20:15;5.93;;;5.53;;
12921;SDS011;6528;48.086;16.282;2023-08-17T00:22:42;6.20;;;5.70;;
12921;SDS011;6528;48.086;16.282;2023-08-17T00:25:10;5.87;;;5.47;;
12921;SDS011;6528;48.086;16.282;2023-08-17T00:27:37;5.73;;;5.33;;
12921;SDS011;6528;48.086;16.282;2023-08-17T00:30:04;6.23;;;5.73;;
12921;SDS011;6528;48.086;16.282;2023-08-17T00:32:33;6.37;;;5.97;;
12921;SDS011;6528;48.086;16.282;2023-08-17T00:35:01;6.97;;;6.47;;
12921;SDS011;6528;48.086;16.282;2023-08-17T00:37:30;6.67;;;6.07;;
12921;SDS011;6528;48.086;16.282;2023-08-17T00:39:57;6.73;;;6.17;;
12921;SDS011;6528;48.086;16.282;2023-08-17T00:42:25;6.50;;;6.10;;
12921;SDS011;6528;48.086;16.282;2023-08-17T00:44:52;6.20;;;5.70;;
12921;SDS011;6528;48.086;16.282;2023-08-17T00:47:20;5.53;;;5.13;;
12921;SDS011;6528;48.086;16.282;2023-08-17T00:49:47;5.67;;;5.27;;
12921;SDS011;6528;48.086;16.282;2023-08-17T00:52:16;5.47;;;5.17;;
12921;SDS011;6528;48.086;16.282;2023-08-17T00:54:43;5.63;;;5.33;;
12921;SDS011;6528;48.086;16.282;2023-08-17T00:57:11;6.37;;;5.97;;
12921;SDS011;6528;48.086;16.282;2023-08-17T00:59:40;6.23;;;5.83;;
12921;SDS011;6528;48.086;16.282;2023-08-17T01:02:12;5.83;;;5.33;;
12921;SDS011;6528;48.086;16.282;2023-08-17T01:04:40;6.73;;;6.33;;
12921;SDS011;6528;48.086;16.282;2023-08-17T01:07:07;5.80;;;5.40;;
12921;SDS011;6528;48.086;16.282;2023-08-17T01:09:35;6.37;;;5.87;;
12921;SDS011;6528;48.086;16.282;2023-08-17T01:12:06;6.13;;;5.50;;
12921;SDS011;6528;48.086;16.282;2023-08-17T01:15:08;6.50;;;6.03;;
12921;SDS011;6528;48.086;16.282;2023-08-17T01:17:43;6.03;;;5.53;;
12921;SDS011;6528;48.086;16.282;2023-08-17T01:20:19;6.03;;;5.63;;
12921;SDS011;6528;48.086;16.282;2023-08-17T01:22:48;5.97;;;5.47;;
12921;SDS011;6528;48.086;16.282;2023-08-17T01:25:17;5.80;;;5.40;;
12921;SDS011;6528;48.086;16.282;2023-08-17T01:27:45;5.50;;;5.10;;
12921;SDS011;6528;48.086;16.282;2023-08-17T01:30:14;7.80;;;5.93;;
12921;SDS011;6528;48.086;16.282;2023-08-17T01:32:48;6.33;;;5.93;;
12921;SDS011;6528;48.086;16.282;2023-08-17T01:35:33;6.33;;;5.93;;
12921;SDS011;6528;48.086;16.282;2023-08-17T01:38:07;6.10;;;5.60;;
12921;SDS011;6528;48.086;16.282;2023-08-17T01:40:38;6.53;;;6.03;;
12921;SDS011;6528;48.086;16.282;2023-08-17T01:43:07;5.90;;;5.50;;
12921;SDS011;6528;48.086;16.282;2023-08-17T01:45:36;5.97;;;5.57;;
12921;SDS011;6528;48.086;16.282;2023-08-17T01:48:03;5.80;;;5.37;;
12921;SDS011;6528;48.086;16.282;2023-08-17T01:50:31;5.57;;;5.10;;
12921;SDS011;6528;48.086;16.282;2023-08-17T01:52:59;6.57;;;6.10;;
12921;SDS011;6528;48.086;16.282;2023-08-17T01:55:26;5.97;;;5.47;;
12921;SDS011;6528;48.086;16.282;2023-08-17T01:57:54;6.00;;;5.57;;
12921;SDS011;6528;48.086;16.282;2023-08-17T02:00:21;6.50;;;6.00;;
12921;SDS011;6528;48.086;16.282;2023-08-17T02:02:49;8.60;;;5.93;;
12921;SDS011;6528;48.086;16.282;2023-08-17T02:05:16;6.10;;;5.60;;
12921;SDS011;6528;48.086;16.282;2023-08-17T02:07:43;5.67;;;5.27;;
12921;SDS011;6528;48.086;16.282;2023-08-17T02:10:11;6.20;;;5.70;;
12921;SDS011;6528;48.086;16.282;2023-08-17T02:12:38;6.60;;;6.10;;
12921;SDS011;6528;48.086;16.282;2023-08-17T02:15:06;6.00;;;5.60;;
12921;SDS011;6528;48.086;16.282;2023-08-17T02:17:34;6.00;;;5.60;;
12921;SDS011;6528;48.086;16.282;2023-08-17T02:20:02;7.07;;;6.60;;
12921;SDS011;6528;48.086;16.282;2023-08-17T02:22:30;6.50;;;6.10;;
12921;SDS011;6528;48.086;16.282;2023-08-17T02:24:58;6.30;;;5.90;;
12921;SDS011;6528;48.086;16.282;2023-08-17T02:27:26;5.80;;;5.40;;
12921;SDS011;6528;48.086;16.282;2023-08-17T02:29:53;6.13;;;5.33;;
12921;SDS011;6528;48.086;16.282;2023-08-17T02:32:21;6.83;;;6.13;;
12921;SDS011;6528;48.086;16.282;2023-08-17T02:34:49;6.33;;;5.80;;
12921;SDS011;6528;48.086;16.282;2023-08-17T02:37:16;6.30;;;5.90;;
12921;SDS011;6528;48.086;16.282;2023-08-17T02:39:44;6.27;;;5.80;;
12921;SDS011;6528;48.086;16.282;2023-08-17T02:42:11;5.87;;;5.47;;
12921;SDS011;6528;48.086;16.282;2023-08-17T02:44:39;5.43;;;5.03;;
12921;SDS011;6528;48.086;16.282;2023-08-17T02:47:06;5.93;;;5.43;;
12921;SDS011;6528;48.086;16.282;2023-08-17T02:49:33;5.73;;;5.33;;
12921;SDS011;6528;48.086;16.282;2023-08-17T02:52:02;6.57;;;6.07;;
12921;SDS011;6528;48.086;16.282;2023-08-17T02:54:29;6.33;;;5.83;;
12921;SDS011;6528;48.086;16.282;2023-08-17T02:56:59;5.57;;;5.27;;
12921;SDS011;6528;48.086;16.282;2023-08-17T02:59:27;6.00;;;5.60;;
12921;SDS011;6528;48.086;16.282;2023-08-17T03:01:55;5.67;;;5.27;;
12921;SDS011;6528;48.086;16.282;2023-08-17T03:04:23;6.23;;;5.77;;
12921;SDS011;6528;48.086;16.282;2023-08-17T03:06:51;6.20;;;5.80;;
12921;SDS011;6528;48.086;16.282;2023-08-17T03:09:18;5.73;;;5.43;;
12921;SDS011;6528;48.086;16.282;2023-08-17T03:11:46;6.20;;;5.80;;
12921;SDS011;6528;48.086;16.282;2023-08-17T03:14:13;5.10;;;4.80;;
12921;SDS011;6528;48.086;16.282;2023-08-17T03:16:41;6.10;;;5.60;;
12921;SDS011;6528;48.086;16.282;2023-08-17T03:19:09;6.37;;;5.97;;
12921;SDS011;6528;48.086;16.282;2023-08-17T03:21:38;6.57;;;6.07;;
12921;SDS011;6528;48.086;16.282;2023-08-17T03:24:06;6.37;;;5.80;;
12921;SDS011;6528;48.086;16.282;2023-08-17T03:26:34;6.10;;;5.60;;
12921;SDS011;6528;48.086;16.282;2023-08-17T03:29:01;6.03;;;5.57;;
12921;SDS011;6528;48.086;16.282;2023-08-17T03:31:28;5.93;;;5.53;;
12921;SDS011;6528;48.086;16.282;2023-08-17T03:33:56;5.60;;;5.20;;
12921;SDS011;6528;48.086;16.282;2023-08-17T03:36:23;5.93;;;5.53;;
12921;SDS011;6528;48.086;16.282;2023-08-17T03:38:51;5.30;;;4.90;;
12921;SDS011;6528;48.086;16.282;2023-08-17T03:41:18;6.37;;;5.97;;
12921;SDS011;6528;48.086;16.282;2023-08-17T03:43:50;6.63;;;6.03;;
12921;SDS011;6528;48.086;16.282;2023-08-17T03:46:17;6.13;;;5.53;;
12921;SDS011;6528;48.086;16.282;2023-08-17T03:48:45;5.63;;;5.20;;
12921;SDS011;6528;48.086;16.282;2023-08-17T03:51:12;5.67;;;5.17;;
12921;SDS011;6528;48.086;16.282;2023-08-17T03:53:42;6.23;;;5.83;;
12921;SDS011;6528;48.086;16.282;2023-08-17T03:56:09;6.53;;;6.03;;
12921;SDS011;6528;48.086;16.282;2023-08-17T03:58:37;5.20;;;4.87;;
12921;SDS011;6528;48.086;16.282;2023-08-17T04:01:05;5.70;;;5.30;;
12921;SDS011;6528;48.086;16.282;2023-08-17T04:03:33;6.30;;;5.70;;
12921;SDS011;6528;48.086;16.282;2023-08-17T04:06:04;5.40;;;5.00;;
12921;SDS011;6528;48.086;16.282;2023-08-17T04:08:35;6.10;;;5.60;;
12921;SDS011;6528;48.086;16.282;2023-08-17T04:11:05;5.90;;;5.50;;
12921;SDS011;6528;48.086;16.282;2023-08-17T04:13:33;5.83;;;5.33;;
12921;SDS011;6528;48.086;16.282;2023-08-17T04:16:00;6.43;;;5.57;;
12921;SDS011;6528;48.086;16.282;2023-08-17T04:18:29;5.90;;;5.50;;
12921;SDS011;6528;48.086;16.282;2023-08-17T04:20:56;5.40;;;5.00;;
12921;SDS011;6528;48.086;16.282;2023-08-17T04:23:24;5.90;;;5.50;;
12921;SDS011;6528;48.086;16.282;2023-08-17T04:25:53;6.47;;;5.63;;
12921;SDS011;6528;48.086;16.282;2023-08-17T04:28:22;5.47;;;5.07;;
12921;SDS011;6528;48.086;16.282;2023-08-17T04:30:49;5.93;;;5.43;;
12921;SDS011;6528;48.086;16.282;2023-08-17T04:33:17;6.30;;;5.73;;
12921;SDS011;6528;48.086;16.282;2023-08-17T04:35:48;5.57;;;5.17;;
12921;SDS011;6528;48.086;16.282;2023-08-17T04:38:15;5.47;;;5.07;;
12921;SDS011;6528;48.086;16.282;2023-08-17T04:40:43;6.07;;;5.50;;
12921;SDS011;6528;48.086;16.282;2023-08-17T04:43:11;5.30;;;4.80;;
12921;SDS011;6528;48.086;16.282;2023-08-17T04:45:41;5.93;;;5.47;;
12921;SDS011;6528;48.086;16.282;2023-08-17T04:48:09;5.50;;;5.10;;
12921;SDS011;6528;48.086;16.282;2023-08-17T04:50:37;5.87;;;5.37;;
12921;SDS011;6528;48.086;16.282;2023-08-17T04:53:04;5.40;;;5.00;;
12921;SDS011;6528;48.086;16.282;2023-08-17T04:55:32;5.20;;;4.90;;
12921;SDS011;6528;48.086;16.282;2023-08-17T04:57:59;5.37;;;5.07;;
12921;SDS011;6528;48.086;16.282;2023-08-17T05:00:27;5.27;;;4.97;;
12921;SDS011;6528;48.086;16.282;2023-08-17T05:02:55;5.60;;;5.23;;
12921;SDS011;6528;48.086;16.282;2023-08-17T05:05:23;6.00;;;5.50;;
12921;SDS011;6528;48.086;16.282;2023-08-17T05:07:51;5.10;;;4.80;;
12921;SDS011;6528;48.086;16.282;2023-08-17T05:10:19;5.53;;;5.23;;
12921;SDS011;6528;48.086;16.282;2023-08-17T05:12:47;6.30;;;5.90;;
12921;SDS011;6528;48.086;16.282;2023-08-17T05:15:15;5.20;;;4.90;;
12921;SDS011;6528;48.086;16.282;2023-08-17T05:17:43;5.10;;;4.80;;
12921;SDS011;6528;48.086;16.282;2023-08-17T05:20:10;6.33;;;5.00;;
12921;SDS011;6528;48.086;16.282;2023-08-17T05:22:39;5.73;;;5.33;;
12921;SDS011;6528;48.086;16.282;2023-08-17T05:25:07;5.50;;;5.07;;
12921;SDS011;6528;48.086;16.282;2023-08-17T05:27:36;6.10;;;5.70;;
12921;SDS011;6528;48.086;16.282;2023-08-17T05:30:03;5.33;;;4.93;;
12921;SDS011;6528;48.086;16.282;2023-08-17T05:32:30;5.60;;;5.07;;
12921;SDS011;6528;48.086;16.282;2023-08-17T05:34:58;6.03;;;5.57;;
12921;SDS011;6528;48.086;16.282;2023-08-17T05:37:26;5.97;;;5.57;;
12921;SDS011;6528;48.086;16.282;2023-08-17T05:39:55;6.27;;;5.50;;
12921;SDS011;6528;48.086;16.282;2023-08-17T05:42:23;4.93;;;4.63;;
12921;SDS011;6528;48.086;16.282;2023-08-17T05:44:51;4.57;;;4.27;;
12921;SDS011;6528;48.086;16.282;2023-08-17T05:47:18;5.20;;;4.80;;
12921;SDS011;6528;48.086;16.282;2023-08-17T05:49:46;5.30;;;4.70;;
12921;SDS011;6528;48.086;16.282;2023-08-17T05:52:14;5.43;;;4.90;;
12921;SDS011;6528;48.086;16.282;2023-08-17T05:54:41;5.23;;;4.83;;
12921;SDS011;6528;48.086;16.282;2023-08-17T05:57:09;4.73;;;4.43;;
12921;SDS011;6528;48.086;16.282;2023-08-17T05:59:37;5.70;;;5.00;;
12921;SDS011;6528;48.086;16.282;2023-08-17T06:02:04;5.10;;;4.60;;
12921;SDS011;6528;48.086;16.282;2023-08-17T06:04:32;4.20;;;3.90;;
12921;SDS011;6528;48.086;16.282;2023-08-17T06:07:00;5.70;;;5.20;;
12921;SDS011;6528;48.086;16.282;2023-08-17T06:09:27;5.07;;;4.60;;
12921;SDS011;6528;48.086;16.282;2023-08-17T06:11:55;5.20;;;4.70;;
12921;SDS011;6528;48.086;16.282;2023-08-17T06:14:22;4.70;;;4.40;;
12921;SDS011;6528;48.086;16.282;2023-08-17T06:16:50;7.30;;;4.97;;
12921;SDS011;6528;48.086;16.282;2023-08-17T06:19:18;4.33;;;4.03;;
12921;SDS011;6528;48.086;16.282;2023-08-17T06:21:46;4.43;;;4.03;;
12921;SDS011;6528;48.086;16.282;2023-08-17T06:24:13;5.20;;;4.70;;
12921;SDS011;6528;48.086;16.282;2023-08-17T06:26:40;4.77;;;4.37;;
12921;SDS011;6528;48.086;16.282;2023-08-17T06:29:08;4.60;;;4.23;;
12921;SDS011;6528;48.086;16.282;2023-08-17T06:31:36;4.50;;;4.20;;
12921;SDS011;6528;48.086;16.282;2023-08-17T06:34:03;4.70;;;4.37;;
12921;SDS011;6528;48.086;16.282;2023-08-17T06:36:31;5.17;;;4.47;;
12921;SDS011;6528;48.086;16.282;2023-08-17T06:38:59;4.87;;;4.57;;
12921;SDS011;6528;48.086;16.282;2023-08-17T06:41:26;7.03;;;4.80;;
12921;SDS011;6528;48.086;16.282;2023-08-17T06:43:55;4.70;;;4.33;;
12921;SDS011;6528;48.086;16.282;2023-08-17T06:46:22;4.53;;;4.23;;
12921;SDS011;6528;48.086;16.282;2023-08-17T06:48:51;4.53;;;4.13;;
12921;SDS011;6528;48.086;16.282;2023-08-17T06:51:19;5.10;;;3.93;;
12921;SDS011;6528;48.086;16.282;2023-08-17T06:53:46;4.63;;;4.33;;
12921;SDS011;6528;48.086;16.282;2023-08-17T06:56:14;4.83;;;4.30;;
12921;SDS011;6528;48.086;16.282;2023-08-17T06:58:41;5.40;;;4.33;;
12921;SDS011;6528;48.086;16.282;2023-08-17T07:01:10;4.70;;;4.40;;
12921;SDS011;6528;48.086;16.282;2023-08-17T07:03:37;4.10;;;3.80;;
12921;SDS011;6528;48.086;16.282;2023-08-17T07:06:05;4.03;;;3.83;;
12921;SDS011;6528;48.086;16.282;2023-08-17T07:08:32;4.40;;;4.10;;
12921;SDS011;6528;48.086;16.282;2023-08-17T07:10:59;4.13;;;3.83;;
12921;SDS011;6528;48.086;16.282;2023-08-17T07:13:27;4.50;;;4.17;;
12921;SDS011;6528;48.086;16.282;2023-08-17T07:15:55;5.90;;;4.20;;
12921;SDS011;6528;48.086;16.282;2023-08-17T07:18:22;4.10;;;3.90;;
12921;SDS011;6528;48.086;16.282;2023-08-17T07:20:52;3.97;;;3.77;;
12921;SDS011;6528;48.086;16.282;2023-08-17T07:23:21;4.10;;;3.80;;
12921;SDS011;6528;48.086;16.282;2023-08-17T07:25:49;4.20;;;3.90;;
12921;SDS011;6528;48.086;16.282;2023-08-17T07:28:17;3.70;;;3.50;;
12921;SDS011;6528;48.086;16.282;2023-08-17T07:30:44;3.80;;;3.60;;
12921;SDS011;6528;48.086;16.282;2023-08-17T07:33:12;3.70;;;3.50;;
12921;SDS011;6528;48.086;16.282;2023-08-17T07:35:40;4.40;;;4.10;;
12921;SDS011;6528;48.086;16.282;2023-08-17T07:38:07;4.17;;;3.90;;
12921;SDS011;6528;48.086;16.282;2023-08-17T07:40:35;4.10;;;3.83;;
12921;SDS011;6528;48.086;16.282;2023-08-17T07:43:03;4.10;;;3.80;;
12921;SDS011;6528;48.086;16.282;2023-08-17T07:45:30;4.40;;;4.10;;
12921;SDS011;6528;48.086;16.282;2023-08-17T07:47:58;3.97;;;3.77;;
12921;SDS011;6528;48.086;16.282;2023-08-17T07:50:25;4.10;;;3.87;;
12921;SDS011;6528;48.086;16.282;2023-08-17T07:52:53;4.17;;;3.90;;
12921;SDS011;6528;48.086;16.282;2023-08-17T07:55:21;3.77;;;3.57;;
12921;SDS011;6528;48.086;16.282;2023-08-17T07:57:49;3.70;;;3.50;;
12921;SDS011;6528;48.086;16.282;2023-08-17T08:00:17;3.80;;;3.60;;
12921;SDS011;6528;48.086;16.282;2023-08-17T08:02:45;4.23;;;3.93;;
12921;SDS011;6528;48.086;16.282;2023-08-17T08:05:13;4.10;;;3.80;;
12921;SDS011;6528;48.086;16.282;2023-08-17T08:07:41;3.80;;;3.60;;
12921;SDS011;6528;48.086;16.282;2023-08-17T08:10:09;4.10;;;3.90;;
12921;SDS011;6528;48.086;16.282;2023-08-17T08:12:36;3.53;;;3.33;;
12921;SDS011;6528;48.086;16.282;2023-08-17T08:15:04;4.33;;;3.97;;
12921;SDS011;6528;48.086;16.282;2023-08-17T08:17:32;4.23;;;4.00;;
12921;SDS011;6528;48.086;16.282;2023-08-17T08:20:01;3.90;;;3.70;;
12921;SDS011;6528;48.086;16.282;2023-08-17T08:22:29;3.73;;;3.53;;
12921;SDS011;6528;48.086;16.282;2023-08-17T08:24:57;3.63;;;3.43;;
12921;SDS011;6528;48.086;16.282;2023-08-17T08:27:25;3.23;;;3.03;;
12921;SDS011;6528;48.086;16.282;2023-08-17T08:29:53;4.40;;;4.20;;
12921;SDS011;6528;48.086;16.282;2023-08-17T08:32:21;4.00;;;3.80;;
12921;SDS011;6528;48.086;16.282;2023-08-17T08:34:49;4.00;;;3.80;;
12921;SDS011;6528;48.086;16.282;2023-08-17T08:37:17;3.73;;;3.43;;
12921;SDS011;6528;48.086;16.282;2023-08-17T08:39:51;4.20;;;3.90;;
12921;SDS011;6528;48.086;16.282;2023-08-17T08:42:20;4.10;;;3.80;;
12921;SDS011;6528;48.086;16.282;2023-08-17T08:44:49;3.77;;;3.47;;
12921;SDS011;6528;48.086;16.282;2023-08-17T08:47:19;3.97;;;3.67;;
12921;SDS011;6528;48.086;16.282;2023-08-17T08:49:58;3.63;;;3.40;;
12921;SDS011;6528;48.086;16.282;2023-08-17T08:52:34;4.13;;;3.83;;
12921;SDS011;6528;48.086;16.282;2023-08-17T08:55:14;3.87;;;3.57;;
12921;SDS011;6528;48.086;16.282;2023-08-17T08:57:46;4.00;;;3.80;;
12921;SDS011;6528;48.086;16.282;2023-08-17T09:00:17;3.40;;;3.20;;
12921;SDS011;6528;48.086;16.282;2023-08-17T09:02:46;5.43;;;5.03;;
12921;SDS011;6528;48.086;16.282;2023-08-17T09:05:14;7.70;;;6.87;;
12921;SDS011;6528;48.086;16.282;2023-08-17T09:07:42;7.20;;;6.50;;
12921;SDS011;6528;48.086;16.282;2023-08-17T09:10:10;5.30;;;4.90;;
12921;SDS011;6528;48.086;16.282;2023-08-17T09:12:39;6.60;;;4.87;;
12921;SDS011;6528;48.086;16.282;2023-08-17T09:15:07;6.90;;;6.30;;
12921;SDS011;6528;48.086;16.282;2023-08-17T09:17:35;7.67;;;5.93;;
12921;SDS011;6528;48.086;16.282;2023-08-17T09:20:03;7.97;;;7.23;;
12921;SDS011;6528;48.086;16.282;2023-08-17T09:22:37;7.27;;;6.57;;
12921;SDS011;6528;48.086;16.282;2023-08-17T09:25:10;5.97;;;5.50;;
12921;SDS011;6528;48.086;16.282;2023-08-17T09:27:38;7.07;;;5.30;;
12921;SDS011;6528;48.086;16.282;2023-08-17T09:30:09;5.77;;;5.37;;
12921;SDS011;6528;48.086;16.282;2023-08-17T09:32:37;5.67;;;5.27;;
12921;SDS011;6528;48.086;16.282;2023-08-17T09:35:06;5.50;;;5.00;;
12921;SDS011;6528;48.086;16.282;2023-08-17T09:37:34;5.60;;;5.27;;
12921;SDS011;6528;48.086;16.282;2023-08-17T09:40:02;6.60;;;4.60;;
12921;SDS011;6528;48.086;16.282;2023-08-17T09:42:29;10.73;;;5.73;;
12921;SDS011;6528;48.086;16.282;2023-08-17T09:45:02;7.13;;;6.30;;
12921;SDS011;6528;48.086;16.282;2023-08-17T09:47:30;8.07;;;6.50;;
12921;SDS011;6528;48.086;16.282;2023-08-17T09:49:58;9.03;;;6.50;;
12921;SDS011;6528;48.086;16.282;2023-08-17T09:52:25;6.87;;;6.37;;
12921;SDS011;6528;48.086;16.282;2023-08-17T09:54:53;30.00;;;9.67;;
12921;SDS011;6528;48.086;16.282;2023-08-17T09:57:22;10.27;;;6.77;;
12921;SDS011;6528;48.086;16.282;2023-08-17T09:59:49;19.13;;;6.20;;
12921;SDS011;6528;48.086;16.282;2023-08-17T10:02:22;18.83;;;7.00;;
12921;SDS011;6528;48.086;16.282;2023-08-17T10:04:53;10.97;;;6.70;;
12921;SDS011;6528;48.086;16.282;2023-08-17T10:07:23;9.70;;;6.13;;
12921;SDS011;6528;48.086;16.282;2023-08-17T10:10:02;8.73;;;6.90;;
12921;SDS011;6528;48.086;16.282;2023-08-17T10:12:53;7.50;;;6.90;;
12921;SDS011;6528;48.086;16.282;2023-08-17T10:15:30;7.47;;;6.57;;
12921;SDS011;6528;48.086;16.282;2023-08-17T10:18:16;7.93;;;7.33;;
12921;SDS011;6528;48.086;16.282;2023-08-17T10:21:13;7.43;;;6.73;;
12921;SDS011;6528;48.086;16.282;2023-08-17T10:23:48;8.00;;;7.30;;
12921;SDS011;6528;48.086;16.282;2023-08-17T10:26:19;7.70;;;7.10;;
12921;SDS011;6528;48.086;16.282;2023-08-17T10:28:47;7.90;;;7.30;;
12921;SDS011;6528;48.086;16.282;2023-08-17T10:31:16;7.60;;;7.00;;
12921;SDS011;6528;48.086;16.282;2023-08-17T10:33:44;7.60;;;7.00;;
12921;SDS011;6528;48.086;16.282;2023-08-17T10:36:14;8.87;;;8.00;;
12921;SDS011;6528;48.086;16.282;2023-08-17T10:38:43;7.67;;;6.97;;
12921;SDS011;6528;48.086;16.282;2023-08-17T10:41:11;7.80;;;7.17;;
12921;SDS011;6528;48.086;16.282;2023-08-17T10:43:58;7.53;;;6.93;;
12921;SDS011;6528;48.086;16.282;2023-08-17T10:46:35;7.30;;;6.70;;
12921;SDS011;6528;48.086;16.282;2023-08-17T10:49:04;6.93;;;6.40;;
12921;SDS011;6528;48.086;16.282;2023-08-17T10:51:33;7.73;;;7.03;;
12921;SDS011;6528;48.086;16.282;2023-08-17T10:54:01;7.50;;;6.90;;
12921;SDS011;6528;48.086;16.282;2023-08-17T10:56:30;7.10;;;6.30;;
12921;SDS011;6528;48.086;16.282;2023-08-17T10:59:00;8.30;;;7.60;;
12921;SDS011;6528;48.086;16.282;2023-08-17T11:01:40;7.43;;;6.83;;
12921;SDS011;6528;48.086;16.282;2023-08-17T11:04:12;7.23;;;6.70;;
12921;SDS011;6528;48.086;16.282;2023-08-17T11:06:44;8.70;;;7.33;;
12921;SDS011;6528;48.086;16.282;2023-08-17T11:09:12;12.67;;;7.03;;
12921;SDS011;6528;48.086;16.282;2023-08-17T11:11:44;10.23;;;7.10;;
12921;SDS011;6528;48.086;16.282;2023-08-17T11:14:22;7.70;;;7.10;;
12921;SDS011;6528;48.086;16.282;2023-08-17T11:16:49;7.53;;;6.90;;
12921;SDS011;6528;48.086;16.282;2023-08-17T11:19:17;7.40;;;6.70;;
12921;SDS011;6528;48.086;16.282;2023-08-17T11:21:45;8.87;;;7.80;;
12921;SDS011;6528;48.086;16.282;2023-08-17T11:24:14;11.47;;;7.40;;
12921;SDS011;6528;48.086;16.282;2023-08-17T11:26:42;9.03;;;6.60;;
12921;SDS011;6528;48.086;16.282;2023-08-17T11:29:09;7.67;;;6.80;;
12921;SDS011;6528;48.086;16.282;2023-08-17T11:31:39;8.63;;;7.30;;
12921;SDS011;6528;48.086;16.282;2023-08-17T11:34:07;7.13;;;6.43;;
12921;SDS011;6528;48.086;16.282;2023-08-17T11:36:35;7.03;;;6.47;;
12921;SDS011;6528;48.086;16.282;2023-08-17T11:39:04;7.30;;;6.67;;
12921;SDS011;6528;48.086;16.282;2023-08-17T11:41:36;12.80;;;7.07;;
12921;SDS011;6528;48.086;16.282;2023-08-17T11:44:04;7.27;;;6.67;;
12921;SDS011;6528;48.086;16.282;2023-08-17T11:46:32;6.33;;;5.83;;
12921;SDS011;6528;48.086;16.282;2023-08-17T11:48:59;6.17;;;5.63;;
12921;SDS011;6528;48.086;16.282;2023-08-17T11:51:28;7.07;;;6.47;;
12921;SDS011;6528;48.086;16.282;2023-08-17T11:54:00;7.83;;;6.20;;
12921;SDS011;6528;48.086;16.282;2023-08-17T11:56:31;6.97;;;6.33;;
12921;SDS011;6528;48.086;16.282;2023-08-17T11:58:58;6.70;;;6.10;;
12921;SDS011;6528;48.086;16.282;2023-08-17T12:01:35;7.10;;;6.27;;
12921;SDS011;6528;48.086;16.282;2023-08-17T12:04:06;6.30;;;5.90;;
12921;SDS011;6528;48.086;16.282;2023-08-17T12:06:33;6.83;;;6.33;;
12921;SDS011;6528;48.086;16.282;2023-08-17T12:09:03;6.67;;;6.17;;
12921;SDS011;6528;48.086;16.282;2023-08-17T12:11:32;7.17;;;6.47;;
12921;SDS011;6528;48.086;16.282;2023-08-17T12:14:07;6.93;;;6.37;;
12921;SDS011;6528;48.086;16.282;2023-08-17T12:16:47;7.33;;;6.63;;
12921;SDS011;6528;48.086;16.282;2023-08-17T12:19:15;6.83;;;6.20;;
12921;SDS011;6528;48.086;16.282;2023-08-17T12:21:43;6.57;;;6.07;;
12921;SDS011;6528;48.086;16.282;2023-08-17T12:24:11;7.90;;;7.30;;
12921;SDS011;6528;48.086;16.282;2023-08-17T12:26:41;7.53;;;6.83;;
12921;SDS011;6528;48.086;16.282;2023-08-17T12:29:13;5.87;;;5.40;;
12921;SDS011;6528;48.086;16.282;2023-08-17T12:31:41;7.20;;;6.60;;
12921;SDS011;6528;48.086;16.282;2023-08-17T12:34:08;6.80;;;6.20;;
12921;SDS011;6528;48.086;16.282;2023-08-17T12:36:36;7.40;;;6.80;;
12921;SDS011;6528;48.086;16.282;2023-08-17T12:39:04;6.43;;;5.83;;
12921;SDS011;6528;48.086;16.282;2023-08-17T12:41:32;6.13;;;5.63;;
12921;SDS011;6528;48.086;16.282;2023-08-17T12:43:59;6.53;;;5.90;;
12921;SDS011;6528;48.086;16.282;2023-08-17T12:46:28;6.33;;;5.93;;
12921;SDS011;6528;48.086;16.282;2023-08-17T12:48:59;6.73;;;6.20;;
12921;SDS011;6528;48.086;16.282;2023-08-17T12:51:26;7.63;;;6.60;;
12921;SDS011;6528;48.086;16.282;2023-08-17T12:53:54;5.93;;;5.43;;
12921;SDS011;6528;48.086;16.282;2023-08-17T12:56:22;6.77;;;6.23;;
12921;SDS011;6528;48.086;16.282;2023-08-17T12:58:49;5.97;;;5.57;;
12921;SDS011;6528;48.086;16.282;2023-08-17T13:01:17;6.67;;;6.17;;
12921;SDS011;6528;48.086;16.282;2023-08-17T13:03:45;6.57;;;6.10;;
12921;SDS011;6528;48.086;16.282;2023-08-17T13:06:12;6.70;;;6.10;;
12921;SDS011;6528;48.086;16.282;2023-08-17T13:08:40;6.90;;;6.30;;
12921;SDS011;6528;48.086;16.282;2023-08-17T13:11:07;6.80;;;6.30;;
12921;SDS011;6528;48.086;16.282;2023-08-17T13:13:36;7.07;;;6.47;;
12921;SDS011;6528;48.086;16.282;2023-08-17T13:16:03;5.80;;;5.30;;
12921;SDS011;6528;48.086;16.282;2023-08-17T13:18:32;6.27;;;5.80;;
12921;SDS011;6528;48.086;16.282;2023-08-17T13:20:59;6.67;;;6.10;;
12921;SDS011;6528;48.086;16.282;2023-08-17T13:23:27;6.20;;;5.60;;
12921;SDS011;6528;48.086;16.282;2023-08-17T13:25:55;6.03;;;5.53;;
12921;SDS011;6528;48.086;16.282;2023-08-17T13:28:22;5.63;;;5.23;;
12921;SDS011;6528;48.086;16.282;2023-08-17T13:30:50;5.87;;;5.47;;
12921;SDS011;6528;48.086;16.282;2023-08-17T13:33:17;6.40;;;5.90;;
12921;SDS011;6528;48.086;16.282;2023-08-17T13:35:45;5.77;;;5.33;;
12921;SDS011;6528;48.086;16.282;2023-08-17T13:38:13;5.83;;;5.43;;
12921;SDS011;6528;48.086;16.282;2023-08-17T13:40:40;6.17;;;5.73;;
12921;SDS011;6528;48.086;16.282;2023-08-17T13:43:08;6.23;;;5.73;;
12921;SDS011;6528;48.086;16.282;2023-08-17T13:45:39;5.87;;;5.47;;
12921;SDS011;6528;48.086;16.282;2023-08-17T13:48:07;6.80;;;6.30;;
12921;SDS011;6528;48.086;16.282;2023-08-17T13:50:36;6.27;;;5.57;;
12921;SDS011;6528;48.086;16.282;2023-08-17T13:53:05;6.30;;;5.80;;
12921;SDS011;6528;48.086;16.282;2023-08-17T13:55:33;6.40;;;5.80;;
12921;SDS011;6528;48.086;16.282;2023-08-17T13:58:00;6.40;;;5.50;;
12921;SDS011;6528;48.086;16.282;2023-08-17T14:00:29;5.97;;;5.57;;
12921;SDS011;6528;48.086;16.282;2023-08-17T14:02:56;6.27;;;5.73;;
12921;SDS011;6528;48.086;16.282;2023-08-17T14:05:26;5.80;;;5.40;;
12921;SDS011;6528;48.086;16.282;2023-08-17T14:07:53;5.20;;;4.90;;
12921;SDS011;6528;48.086;16.282;2023-08-17T14:10:21;6.03;;;5.63;;
12921;SDS011;6528;48.086;16.282;2023-08-17T14:13:03;6.30;;;5.80;;
12921;SDS011;6528;48.086;16.282;2023-08-17T14:15:31;6.77;;;6.20;;
12921;SDS011;6528;48.086;16.282;2023-08-17T14:17:59;6.07;;;5.67;;
12921;SDS011;6528;48.086;16.282;2023-08-17T14:20:27;6.03;;;5.53;;
12921;SDS011;6528;48.086;16.282;2023-08-17T14:22:55;5.80;;;5.30;;
12921;SDS011;6528;48.086;16.282;2023-08-17T14:25:22;5.60;;;5.20;;
12921;SDS011;6528;48.086;16.282;2023-08-17T14:27:50;7.03;;;6.47;;
12921;SDS011;6528;48.086;16.282;2023-08-17T14:30:17;6.53;;;6.03;;
12921;SDS011;6528;48.086;16.282;2023-08-17T14:32:45;6.10;;;5.60;;
12921;SDS011;6528;48.086;16.282;2023-08-17T14:35:12;6.73;;;6.13;;
12921;SDS011;6528;48.086;16.282;2023-08-17T14:37:40;6.17;;;5.77;;
12921;SDS011;6528;48.086;16.282;2023-08-17T14:40:08;6.07;;;5.70;;
12921;SDS011;6528;48.086;16.282;2023-08-17T14:42:36;5.83;;;5.43;;
12921;SDS011;6528;48.086;16.282;2023-08-17T14:45:04;5.87;;;5.47;;
12921;SDS011;6528;48.086;16.282;2023-08-17T14:47:33;5.97;;;5.40;;
12921;SDS011;6528;48.086;16.282;2023-08-17T14:50:00;5.87;;;5.43;;
12921;SDS011;6528;48.086;16.282;2023-08-17T14:52:28;5.87;;;5.47;;
12921;SDS011;6528;48.086;16.282;2023-08-17T14:55:00;5.50;;;5.20;;
12921;SDS011;6528;48.086;16.282;2023-08-17T14:57:27;6.03;;;5.53;;